Spout Spring, VA (24593)

7:02 PM EDT on August 28, 2015 (GMT -0400)
Pumping Station Road | | Change Station
CLOSE
Current Station
Personal Weather Station
Location: Appomattox, VA
Elevation: 840 ft
Nearby Weather Stations

Elev 840 ft 37.35 °N, 78.86 °W | Updated 6 seconds ago

Partly Cloudy
Partly Cloudy
79.9 °F
Feels Like 81 °F
N
0.0
Wind Variable Wind from ENE
Gusts 0.0 mph

Today
High -- | Low -- °F
--% Chance of Precip.
Yesterday
High -- | Low -- °F
Precip. -- in
6:42 AM 7:50 PM
Waxing Gibbous, 99% visible
Pressure 30.14 in
Visibility 10.0 miles
Clouds Clear
Heat Index 81 °F
Dew Point 63 °F
Humidity 57%
Rainfall 0.00 in
Snow Depth Not available.
UV 1 out of 12
Pollen 8.70 out of 12
Air Quality Not available.
Flu Activity Not available.
METAR KLYH 282254Z 13003KT 10SM CLR 26/15 A3015 RMK AO2 SLP204 T02610150
Pressure 30.14 in
Visibility 10.0 miles
Clouds Clear
Heat Index 81 °F
Dew Point 63 °F
Humidity 57%
Rainfall 0.00 in
Snow Depth Not available.
UV 1 out of 12
Pollen 8.70 out of 12
Air Quality Not available.
Flu Activity Not available.
METAR KLYH 282254Z 13003KT 10SM CLR 26/15 A3015 RMK AO2 SLP204 T02610150

10-Day Weather Forecast

×

Almanac

Astronomy

Aug. 28, 2015 Rise Set
Actual Time
Civil Twilight
Nautical Twilight
Astronomical Twilight
Moon
Length of Visible Light
Length of Day
Tomorrow will be .
, % of the Moon is Illuminated

Today's Extremes

State Highs State Lows

Community

WunderPhotos

Upload Photos

1,850,519 photos uploaded!

WunderBlogs® & News

Nearby

Air Quality

  Air Quality AQ Index Pollutant
Not available.

Snow Depth

Station Depth Elevation

Earthquake Activity

City Distance Mag. Time & Date
Minimum magnitude displayed is 2.5.

Coastal Water Temperatures

Place Temperature

Stations

Nearby Weather Stations

Station Location Temp. Windchill Dew Point Humidity Wind Precip. Elev Updated Type